createdAt,value
2022-12-05T00:01:52.158Z,21.67
2022-12-05T00:04:20.443Z,21.65
2022-12-05T00:06:48.609Z,20.83
2022-12-05T00:09:18.142Z,16.30
2022-12-05T00:11:47.227Z,20.10
2022-12-05T00:14:15.674Z,15.35
2022-12-05T00:16:44.876Z,16.63
2022-12-05T00:19:15.974Z,20.40
2022-12-05T00:21:44.899Z,16.30
2022-12-05T00:24:16.222Z,21.42
2022-12-05T00:26:46.201Z,19.95
2022-12-05T00:29:14.717Z,16.92
2022-12-05T00:31:43.056Z,14.13
2022-12-05T00:34:11.214Z,17.30
2022-12-05T00:36:39.469Z,16.15
2022-12-05T00:39:11.347Z,17.10
2022-12-05T00:41:39.789Z,12.48
2022-12-05T00:44:11.269Z,18.25
2022-12-05T00:46:39.489Z,19.77
2022-12-05T00:49:08.866Z,15.93
2022-12-05T00:51:40.284Z,16.50
2022-12-05T00:54:12.091Z,16.52
2022-12-05T00:56:40.470Z,16.85
2022-12-05T00:59:13.678Z,15.23
2022-12-05T01:01:44.880Z,14.03
2022-12-05T01:04:16.932Z,14.63
2022-12-05T01:06:45.996Z,18.00
2022-12-05T01:09:17.034Z,18.73
2022-12-05T01:11:45.812Z,17.77
2022-12-05T01:14:17.791Z,17.70
2022-12-05T01:16:49.196Z,18.90
2022-12-05T01:19:20.984Z,15.68
2022-12-05T01:21:49.562Z,16.08
2022-12-05T01:24:18.925Z,17.88
2022-12-05T01:26:48.521Z,18.20
2022-12-05T01:29:21.831Z,18.15
2022-12-05T01:31:50.654Z,14.20
2022-12-05T01:34:19.535Z,18.08
2022-12-05T01:36:48.226Z,19.30
2022-12-05T01:39:17.451Z,21.75
2022-12-05T01:41:51.388Z,15.10
2022-12-05T01:45:03.078Z,17.65
2022-12-05T01:47:36.301Z,17.17
2022-12-05T01:50:06.630Z,17.73
2022-12-05T01:52:35.860Z,22.80
2022-12-05T01:55:12.906Z,15.55
2022-12-05T01:57:42.256Z,19.10
2022-12-05T02:00:16.140Z,17.55
2022-12-05T02:02:50.198Z,16.50
2022-12-05T02:05:22.823Z,20.27
2022-12-05T02:07:54.016Z,17.58
2022-12-05T02:10:22.435Z,16.10
2022-12-05T02:12:52.326Z,14.85
2022-12-05T02:15:39.383Z,14.85
2022-12-05T02:18:30.495Z,15.65
2022-12-05T02:21:56.655Z,17.23
2022-12-05T02:25:01.582Z,13.38
2022-12-05T02:28:08.622Z,17.35
2022-12-05T02:30:43.164Z,16.40
2022-12-05T02:33:23.128Z,13.52
2022-12-05T02:36:04.329Z,16.70
2022-12-05T02:38:42.736Z,14.32
2022-12-05T02:41:20.243Z,16.58
2022-12-05T02:43:59.232Z,14.73
2022-12-05T02:46:33.200Z,13.77
2022-12-05T02:49:06.655Z,13.23
2022-12-05T02:51:42.402Z,13.60
2022-12-05T02:54:17.403Z,12.90
2022-12-05T02:56:48.190Z,13.10
2022-12-05T02:59:22.903Z,12.48
2022-12-05T03:01:53.733Z,10.98
2022-12-05T03:04:26.446Z,11.57
2022-12-05T03:07:00.774Z,11.13
2022-12-05T03:09:36.377Z,12.18
2022-12-05T03:12:14.055Z,10.90
2022-12-05T03:14:47.922Z,11.67
2022-12-05T03:17:23.655Z,13.43
2022-12-05T03:19:58.792Z,11.17
2022-12-05T03:22:35.148Z,10.75
2022-12-05T03:25:05.129Z,11.68
2022-12-05T03:27:45.982Z,13.05
2022-12-05T03:30:18.618Z,9.10
2022-12-05T03:32:58.751Z,11.65
2022-12-05T03:35:37.800Z,8.65
2022-12-05T03:38:13.744Z,10.73
2022-12-05T03:40:48.799Z,8.95
2022-12-05T03:43:28.686Z,8.43
2022-12-05T03:46:05.600Z,8.98
2022-12-05T03:48:40.210Z,9.68
2022-12-05T03:51:14.426Z,7.97
2022-12-05T03:53:49.397Z,11.93
2022-12-05T03:56:24.590Z,8.32
2022-12-05T03:59:00.142Z,8.65
2022-12-05T04:01:33.134Z,8.48
2022-12-05T04:04:11.141Z,9.00
2022-12-05T04:06:41.994Z,8.60
2022-12-05T04:09:17.537Z,7.70
2022-12-05T04:11:52.686Z,7.68
2022-12-05T04:14:29.161Z,7.82
2022-12-05T04:17:04.289Z,10.20
2022-12-05T04:19:59.175Z,7.63
2022-12-05T04:22:28.729Z,7.60
2022-12-05T04:25:17.954Z,6.47
2022-12-05T04:27:57.939Z,7.40
2022-12-05T04:30:37.021Z,6.00
2022-12-05T04:33:13.208Z,6.63
2022-12-05T04:35:50.995Z,6.05
2022-12-05T04:38:26.334Z,7.72
2022-12-05T04:41:01.561Z,7.05
2022-12-05T04:43:34.906Z,6.47
2022-12-05T04:46:09.131Z,8.13
2022-12-05T04:48:42.295Z,5.15
2022-12-05T04:51:19.870Z,7.20
2022-12-05T04:53:54.410Z,8.45
2022-12-05T04:56:28.650Z,7.68
2022-12-05T04:58:57.091Z,10.18
2022-12-05T05:01:32.636Z,8.45
2022-12-05T05:04:08.333Z,8.07
2022-12-05T05:06:41.934Z,8.65
2022-12-05T05:09:11.122Z,8.38
2022-12-05T05:11:39.570Z,6.15
2022-12-05T05:14:07.729Z,7.00
2022-12-05T05:16:40.507Z,6.33
2022-12-05T05:19:11.686Z,9.27
2022-12-05T05:21:43.573Z,7.70
2022-12-05T05:24:13.772Z,5.60
2022-12-05T05:26:44.593Z,4.63
2022-12-05T05:29:14.702Z,6.53
2022-12-05T05:31:44.724Z,4.30
2022-12-05T05:34:15.941Z,6.70
2022-12-05T05:36:45.272Z,6.78
2022-12-05T05:39:16.570Z,5.75
2022-12-05T05:41:44.989Z,6.85
2022-12-05T05:44:13.021Z,4.77
2022-12-05T05:46:43.711Z,5.73
2022-12-05T05:49:11.997Z,6.77
2022-12-05T05:51:40.137Z,6.67
2022-12-05T05:54:11.436Z,5.90
2022-12-05T05:56:41.289Z,6.82
2022-12-05T05:59:10.470Z,7.18
2022-12-05T06:01:38.524Z,4.97
2022-12-05T06:04:07.718Z,5.40
2022-12-05T06:06:35.911Z,5.93
2022-12-05T06:09:03.920Z,4.47
2022-12-05T06:11:33.332Z,5.53
2022-12-05T06:14:02.108Z,5.43
2022-12-05T06:16:32.661Z,5.38
2022-12-05T06:19:00.809Z,5.10
2022-12-05T06:21:28.931Z,4.45
2022-12-05T06:23:57.431Z,3.83
2022-12-05T06:26:25.509Z,3.90
2022-12-05T06:28:55.236Z,4.55
2022-12-05T06:31:27.130Z,4.43
2022-12-05T06:33:55.467Z,5.87
2022-12-05T06:36:23.639Z,6.40
2022-12-05T06:38:51.714Z,5.88
2022-12-05T06:41:24.507Z,5.22
2022-12-05T06:44:01.356Z,5.37
2022-12-05T06:46:30.531Z,5.33
2022-12-05T06:49:00.477Z,5.73
2022-12-05T06:51:28.651Z,6.30
2022-12-05T06:53:57.299Z,6.72
2022-12-05T06:56:25.491Z,7.20
2022-12-05T06:58:55.676Z,6.25
2022-12-05T07:01:40.827Z,6.80
2022-12-05T07:04:15.463Z,6.00
2022-12-05T07:06:50.208Z,6.27
2022-12-05T07:09:20.799Z,7.30
2022-12-05T07:11:50.585Z,5.77
2022-12-05T07:14:45.884Z,7.20
2022-12-05T07:17:08.076Z,5.63
2022-12-05T07:19:36.490Z,5.03
2022-12-05T07:22:04.801Z,6.27
2022-12-05T07:24:35.519Z,7.67
2022-12-05T07:27:03.533Z,6.10
2022-12-05T07:29:33.126Z,8.47
2022-12-05T07:32:01.871Z,6.27
2022-12-05T07:34:30.330Z,7.57
2022-12-05T07:36:58.518Z,7.93
2022-12-05T07:39:32.720Z,6.45
2022-12-05T07:42:00.755Z,8.20
2022-12-05T07:44:28.824Z,7.10
2022-12-05T07:46:59.315Z,7.57
2022-12-05T07:49:27.639Z,6.50
2022-12-05T07:51:55.646Z,6.13
2022-12-05T07:54:23.874Z,6.07
2022-12-05T07:56:51.942Z,8.10
2022-12-05T07:59:20.192Z,8.63
2022-12-05T08:01:48.327Z,6.90
2022-12-05T08:04:17.847Z,9.27
2022-12-05T08:06:46.005Z,5.77
2022-12-05T08:09:14.523Z,7.30
2022-12-05T08:11:42.558Z,6.20
2022-12-05T08:14:13.246Z,6.07
2022-12-05T08:16:41.333Z,6.23
2022-12-05T08:19:13.981Z,8.47
2022-12-05T08:21:43.609Z,9.00
2022-12-05T08:24:13.062Z,11.23
2022-12-05T08:26:41.795Z,10.37
2022-12-05T08:29:12.895Z,10.33
2022-12-05T08:31:47.072Z,12.13
2022-12-05T08:34:16.578Z,13.77
2022-12-05T08:36:47.377Z,10.13
2022-12-05T08:39:18.640Z,10.77
2022-12-05T08:41:49.474Z,9.67
2022-12-05T08:44:19.051Z,10.23
2022-12-05T08:46:50.570Z,10.07
2022-12-05T08:49:19.668Z,9.57
2022-12-05T08:51:49.309Z,7.97
2022-12-05T08:54:18.370Z,9.37
2022-12-05T08:56:46.509Z,9.03
2022-12-05T08:59:14.550Z,6.90
2022-12-05T09:01:42.726Z,7.77
2022-12-05T09:04:12.264Z,6.77
2022-12-05T09:06:42.279Z,7.50
2022-12-05T09:09:13.341Z,7.80
2022-12-05T09:11:46.698Z,8.63
2022-12-05T09:14:15.806Z,7.90
2022-12-05T09:16:47.166Z,7.60
2022-12-05T09:19:18.473Z,10.17
2022-12-05T09:21:46.965Z,7.40
2022-12-05T09:24:16.462Z,7.90
2022-12-05T09:26:46.174Z,7.83
2022-12-05T09:29:17.775Z,8.77
2022-12-05T09:31:51.524Z,7.53
2022-12-05T09:34:20.173Z,10.37
2022-12-05T09:36:55.845Z,10.77
2022-12-05T09:39:30.918Z,10.77
2022-12-05T09:42:23.297Z,8.50
2022-12-05T09:45:05.815Z,6.20
2022-12-05T09:47:56.221Z,7.27
2022-12-05T09:50:28.102Z,8.03
2022-12-05T09:53:15.383Z,9.20
2022-12-05T09:55:50.319Z,6.60
2022-12-05T09:58:29.837Z,6.83
2022-12-05T10:01:07.083Z,8.10
2022-12-05T10:03:44.235Z,7.77
2022-12-05T10:06:22.582Z,7.43
2022-12-05T10:09:13.669Z,9.13
2022-12-05T10:11:58.024Z,9.60
2022-12-05T10:14:43.495Z,7.83
2022-12-05T10:17:24.980Z,8.20
2022-12-05T10:19:58.993Z,7.90
2022-12-05T10:22:37.674Z,6.43
2022-12-05T10:25:08.693Z,8.83
2022-12-05T10:27:46.529Z,11.63
2022-12-05T10:30:17.708Z,13.10
2022-12-05T10:32:54.854Z,9.47
2022-12-05T10:35:26.358Z,13.80
2022-12-05T10:37:58.821Z,11.23
2022-12-05T10:40:37.618Z,10.50
2022-12-05T10:43:08.903Z,10.10
2022-12-05T10:45:48.256Z,12.43
2022-12-05T10:48:21.067Z,8.70
2022-12-05T10:50:52.246Z,10.20
2022-12-05T10:53:25.967Z,10.13
2022-12-05T10:56:28.878Z,13.47
2022-12-05T10:58:57.059Z,8.47
2022-12-05T11:01:27.554Z,9.93
2022-12-05T11:03:59.938Z,10.70
2022-12-05T11:06:30.529Z,12.80
2022-12-05T11:09:05.421Z,8.63
2022-12-05T11:11:35.502Z,10.40
2022-12-05T11:14:07.951Z,13.77
2022-12-05T11:16:39.913Z,14.87
2022-12-05T11:19:28.408Z,16.73
2022-12-05T11:21:57.335Z,16.03
2022-12-05T11:24:31.412Z,17.17
2022-12-05T11:27:01.901Z,17.80
2022-12-05T11:29:37.018Z,18.70
2022-12-05T11:32:17.641Z,19.70
2022-12-05T11:34:54.255Z,15.13
2022-12-05T11:37:27.710Z,14.37
2022-12-05T11:39:55.874Z,14.53
2022-12-05T11:42:40.002Z,11.67
2022-12-05T11:45:36.115Z,11.40
2022-12-05T11:48:55.322Z,13.03
2022-12-05T11:51:39.344Z,10.10
2022-12-05T11:55:06.993Z,10.23
2022-12-05T11:58:06.314Z,11.07
2022-12-05T12:00:51.048Z,11.83
2022-12-05T12:03:40.649Z,14.67
2022-12-05T12:06:30.165Z,10.80
2022-12-05T12:09:23.251Z,16.83
2022-12-05T12:12:03.716Z,15.53
2022-12-05T12:14:46.672Z,15.33
2022-12-05T12:17:32.175Z,16.30
2022-12-05T12:20:30.530Z,16.93
2022-12-05T12:23:21.948Z,20.30
2022-12-05T12:26:07.257Z,22.93
2022-12-05T12:28:59.117Z,20.50
2022-12-05T12:31:52.155Z,20.43
2022-12-05T12:34:42.617Z,16.10
2022-12-05T12:37:27.978Z,18.37
2022-12-05T12:40:05.694Z,20.53
2022-12-05T12:42:48.907Z,19.70
2022-12-05T12:45:58.654Z,20.93
2022-12-05T12:48:51.798Z,18.73
2022-12-05T12:51:21.560Z,17.60
2022-12-05T12:54:34.174Z,18.87
2022-12-05T12:57:23.512Z,17.30
2022-12-05T13:00:12.298Z,14.67
2022-12-05T13:02:47.850Z,14.70
2022-12-05T13:05:27.829Z,14.50
2022-12-05T13:08:05.339Z,13.27
2022-12-05T13:10:39.464Z,11.27
2022-12-05T13:13:12.055Z,12.30
2022-12-05T13:15:47.821Z,12.77
2022-12-05T13:18:19.868Z,13.50
2022-12-05T13:20:51.647Z,16.70
2022-12-05T13:23:26.519Z,17.13
2022-12-05T13:25:58.833Z,16.57
2022-12-05T13:28:31.875Z,16.03
2022-12-05T13:31:04.890Z,15.47
2022-12-05T13:33:37.112Z,20.57
2022-12-05T13:36:30.053Z,19.47
2022-12-05T13:39:23.602Z,17.57
2022-12-05T13:42:14.677Z,16.93
2022-12-05T13:44:46.605Z,16.47
2022-12-05T13:47:34.410Z,19.00
2022-12-05T13:50:14.950Z,16.47
2022-12-05T13:52:49.291Z,17.03
2022-12-05T13:55:35.243Z,14.27
2022-12-05T13:58:25.907Z,14.57
2022-12-05T14:01:55.311Z,17.27
2022-12-05T14:04:51.452Z,19.20
2022-12-05T14:07:43.241Z,19.63
2022-12-05T14:10:17.764Z,22.10
2022-12-05T14:12:56.762Z,23.17
2022-12-05T14:15:33.090Z,27.27
2022-12-05T14:18:14.154Z,26.33
2022-12-05T14:21:08.756Z,28.07
2022-12-05T14:24:07.916Z,27.23
2022-12-05T14:27:07.215Z,29.90
2022-12-05T14:30:00.549Z,26.13
2022-12-05T14:32:34.875Z,29.40
2022-12-05T14:35:13.867Z,20.73
2022-12-05T14:37:51.677Z,16.10
2022-12-05T14:40:30.443Z,14.17
2022-12-05T14:43:02.754Z,13.90
2022-12-05T14:45:39.911Z,21.13
2022-12-05T14:48:30.426Z,18.17
2022-12-05T14:51:00.238Z,18.17
2022-12-05T14:53:40.575Z,18.20
2022-12-05T14:56:18.381Z,18.87
2022-12-05T14:58:56.798Z,18.17
2022-12-05T15:01:32.292Z,19.17
2022-12-05T15:04:10.608Z,20.83
2022-12-05T15:06:49.537Z,22.83
2022-12-05T15:09:48.846Z,19.90
2022-12-05T15:12:22.723Z,31.27
2022-12-05T15:15:02.886Z,39.33
2022-12-05T15:17:44.150Z,36.73
2022-12-05T15:20:21.350Z,27.27
2022-12-05T15:22:49.611Z,36.80
2022-12-05T15:25:31.031Z,30.00
2022-12-05T15:28:04.689Z,31.40
2022-12-05T15:30:37.098Z,29.73
2022-12-05T15:33:12.513Z,28.10
2022-12-05T15:35:47.691Z,24.43
2022-12-05T15:38:27.626Z,26.30
2022-12-05T15:40:55.987Z,26.80
2022-12-05T15:43:34.029Z,30.03
2022-12-05T15:46:23.862Z,45.00
2022-12-05T15:48:55.325Z,35.90
2022-12-05T15:51:32.798Z,35.63
2022-12-05T15:54:09.323Z,28.60
2022-12-05T15:56:44.448Z,32.27
2022-12-05T15:59:22.059Z,28.43
2022-12-05T16:01:57.841Z,34.43
2022-12-05T16:04:34.813Z,35.37
2022-12-05T16:07:09.598Z,35.17
2022-12-05T16:09:42.881Z,40.03
2022-12-05T16:12:32.115Z,41.77
2022-12-05T16:15:07.007Z,43.67
2022-12-05T16:17:42.446Z,44.47
2022-12-05T16:20:28.836Z,47.57
2022-12-05T16:23:01.522Z,44.13
2022-12-05T16:25:33.674Z,50.27
2022-12-05T16:28:16.650Z,48.47
2022-12-05T16:30:57.593Z,46.10
2022-12-05T16:33:28.008Z,37.60
2022-12-05T16:36:07.943Z,36.63
2022-12-05T16:38:36.454Z,56.27
2022-12-05T16:41:08.995Z,42.73
2022-12-05T16:43:46.668Z,41.40
2022-12-05T16:46:44.730Z,43.87
2022-12-05T16:49:42.626Z,43.00
2022-12-05T16:52:16.647Z,21.63
2022-12-05T16:54:50.425Z,30.53
2022-12-05T16:57:19.056Z,21.70
2022-12-05T16:59:49.431Z,27.07
2022-12-05T17:02:19.815Z,26.37
2022-12-05T17:04:47.987Z,29.00
2022-12-05T17:07:17.573Z,29.13
2022-12-05T17:09:45.917Z,33.00
2022-12-05T17:12:23.741Z,27.33
2022-12-05T17:14:51.888Z,29.10
2022-12-05T17:17:20.026Z,29.13
2022-12-05T17:19:48.056Z,31.33
2022-12-05T17:22:17.830Z,31.23
2022-12-05T17:24:46.616Z,33.87
2022-12-05T17:27:14.973Z,32.93
2022-12-05T17:29:43.013Z,43.43
2022-12-05T17:32:11.643Z,42.57
2022-12-05T17:34:39.696Z,35.10
2022-12-05T17:37:07.698Z,35.30
2022-12-05T17:39:37.059Z,35.70
2022-12-05T17:42:05.447Z,31.70
2022-12-05T17:44:33.522Z,22.90
2022-12-05T17:47:07.494Z,22.33
2022-12-05T17:49:36.202Z,22.87
2022-12-05T17:52:21.923Z,25.37
2022-12-05T17:54:51.712Z,22.40
2022-12-05T17:57:19.740Z,22.13
2022-12-05T17:59:50.438Z,22.83
2022-12-05T18:02:19.954Z,19.13
2022-12-05T18:04:48.185Z,20.43
2022-12-05T18:07:16.733Z,20.97
2022-12-05T18:09:44.752Z,20.87
2022-12-05T18:12:14.120Z,21.97
2022-12-05T18:14:42.172Z,27.57
2022-12-05T18:17:10.189Z,25.30
2022-12-05T18:19:38.258Z,22.20
2022-12-05T18:22:06.649Z,21.97
2022-12-05T18:24:34.724Z,22.17
2022-12-05T18:27:02.754Z,21.07
2022-12-05T18:29:32.321Z,24.57
2022-12-05T18:32:00.611Z,28.17
2022-12-05T18:34:28.654Z,32.80
2022-12-05T18:36:57.036Z,32.77
2022-12-05T18:39:25.070Z,30.23
2022-12-05T18:41:53.088Z,33.20
2022-12-05T18:44:21.478Z,27.73
2022-12-05T18:46:50.947Z,28.03
2022-12-05T18:49:18.962Z,23.87
2022-12-05T18:51:47.051Z,14.03
2022-12-05T18:54:15.424Z,9.70
2022-12-05T18:56:45.828Z,13.80
2022-12-05T18:59:16.499Z,13.77
2022-12-05T19:01:46.073Z,11.17
2022-12-05T19:04:17.892Z,15.13
2022-12-05T19:06:51.076Z,21.30
2022-12-05T19:09:23.927Z,26.92
2022-12-05T19:11:56.881Z,31.20
2022-12-05T19:14:27.549Z,30.90
2022-12-05T19:17:00.251Z,33.47
2022-12-05T19:19:30.272Z,32.47
2022-12-05T19:21:59.276Z,31.90
2022-12-05T19:24:27.813Z,42.97
2022-12-05T19:26:55.999Z,40.00
2022-12-05T19:29:24.100Z,32.10
2022-12-05T19:31:52.173Z,35.97
2022-12-05T19:34:20.245Z,34.17
2022-12-05T19:36:49.775Z,35.10
2022-12-05T19:39:20.093Z,32.05
2022-12-05T19:41:49.409Z,30.03
2022-12-05T19:44:17.953Z,31.33
2022-12-05T19:46:46.107Z,27.37
2022-12-05T19:49:17.183Z,29.87
2022-12-05T19:51:46.373Z,31.27
2022-12-05T19:54:17.961Z,28.23
2022-12-05T19:56:46.136Z,28.53
2022-12-05T19:59:16.643Z,28.13
2022-12-05T20:01:45.230Z,28.17
2022-12-05T20:04:16.610Z,25.17
2022-12-05T20:06:47.587Z,22.20
2022-12-05T20:09:19.861Z,23.87
2022-12-05T20:11:55.141Z,26.57
2022-12-05T20:14:25.549Z,30.80
2022-12-05T20:16:54.554Z,29.83
2022-12-05T20:19:23.341Z,24.63
2022-12-05T20:21:51.497Z,26.97
2022-12-05T20:24:20.971Z,25.67
2022-12-05T20:26:49.095Z,27.43
2022-12-05T20:29:17.207Z,22.37
2022-12-05T20:31:45.624Z,21.73
2022-12-05T20:34:15.455Z,23.40
2022-12-05T20:36:44.008Z,22.93
2022-12-05T20:39:16.090Z,20.50
2022-12-05T20:41:46.580Z,21.43
2022-12-05T20:44:17.615Z,26.27
2022-12-05T20:46:46.107Z,26.23
2022-12-05T20:49:14.583Z,23.40
2022-12-05T20:51:45.558Z,24.53
2022-12-05T20:54:16.598Z,23.90
2022-12-05T20:56:46.730Z,24.77
2022-12-05T20:59:15.383Z,24.43
2022-12-05T21:01:43.667Z,31.73
2022-12-05T21:04:12.955Z,29.43
2022-12-05T21:06:43.720Z,25.73
2022-12-05T21:09:15.810Z,30.17
2022-12-05T21:11:46.238Z,29.23
2022-12-05T21:14:14.794Z,29.80
2022-12-05T21:16:42.800Z,28.67
2022-12-05T21:19:10.860Z,30.53
2022-12-05T21:21:39.387Z,30.67
2022-12-05T21:24:08.779Z,30.90
2022-12-05T21:26:36.973Z,33.90
2022-12-05T21:29:08.331Z,33.47
2022-12-05T21:31:39.365Z,33.57
2022-12-05T21:34:13.671Z,31.80
2022-12-05T21:36:42.274Z,28.97
2022-12-05T21:39:11.106Z,32.73
2022-12-05T21:41:39.740Z,34.43
2022-12-05T21:44:09.526Z,29.83
2022-12-05T21:46:37.844Z,30.93
2022-12-05T21:49:06.213Z,33.03
2022-12-05T21:51:34.268Z,29.97
2022-12-05T21:54:02.287Z,27.73
2022-12-05T21:56:30.445Z,27.57
2022-12-05T21:58:58.499Z,21.63
2022-12-05T22:01:29.521Z,25.33
2022-12-05T22:04:00.660Z,21.97
2022-12-05T22:06:33.385Z,18.87
2022-12-05T22:09:01.868Z,18.70
2022-12-05T22:11:29.919Z,16.40
2022-12-05T22:13:58.058Z,18.27
2022-12-05T22:16:32.822Z,14.70
2022-12-05T22:19:02.386Z,15.33
2022-12-05T22:21:33.772Z,13.60
2022-12-05T22:24:02.179Z,19.23
2022-12-05T22:26:30.241Z,17.10
2022-12-05T22:28:58.254Z,18.87
2022-12-05T22:31:27.779Z,17.03
2022-12-05T22:33:55.873Z,14.17
2022-12-05T22:36:24.311Z,11.97
2022-12-05T22:38:52.411Z,13.27
2022-12-05T22:41:23.627Z,12.80
2022-12-05T22:43:56.681Z,12.93
2022-12-05T22:46:28.540Z,12.00
2022-12-05T22:48:57.043Z,12.37
2022-12-05T22:51:27.372Z,13.20
2022-12-05T22:53:55.427Z,11.70
2022-12-05T22:56:26.729Z,12.27
2022-12-05T22:58:56.482Z,10.37
2022-12-05T23:01:29.704Z,9.37
2022-12-05T23:04:00.655Z,10.70
2022-12-05T23:06:31.103Z,12.43
2022-12-05T23:09:00.429Z,10.87
2022-12-05T23:11:30.743Z,11.57
2022-12-05T23:14:02.154Z,13.07
2022-12-05T23:16:34.617Z,12.63
2022-12-05T23:19:06.558Z,15.53
2022-12-05T23:21:37.865Z,11.47
2022-12-05T23:24:08.941Z,14.60
2022-12-05T23:26:40.688Z,14.17
2022-12-05T23:29:09.466Z,14.67
2022-12-05T23:31:39.270Z,12.83
2022-12-05T23:34:07.478Z,16.60
2022-12-05T23:36:36.334Z,15.20
2022-12-05T23:39:05.145Z,14.77
2022-12-05T23:41:33.869Z,15.13
2022-12-05T23:44:02.014Z,14.00
2022-12-05T23:46:30.873Z,13.83
2022-12-05T23:49:00.734Z,13.37
2022-12-05T23:51:31.158Z,12.80
2022-12-05T23:54:01.986Z,12.17
2022-12-05T23:56:33.317Z,14.37
2022-12-05T23:59:03.157Z,13.47
